Time;durP1;ratioP1;P1;durP2;ratioP2;P2;SDS_P1;SDS_P2;PMS_P1;PMS_P2;Temp;Humidity;BMP_temperature;BMP_pressure;BME280_temperature;BME280_humidity;BME280_pressure;Samples;Min_cycle;Max_cycle;Signal;HPM_P1;HPM_P2
2020/12/14 00:01:35;;;;;;;14.30;12.90;;;;;;;;;;4574642;28;20285;-77
2020/12/14 00:03:52;;;;;;;14.70;12.17;;;;;;;;;;4592308;28;20471;-77
2020/12/14 00:06:08;;;;;;;14.33;12.70;;;6.20;75.40;;;;;;4577108;28;20468;-77
2020/12/14 00:08:24;;;;;;;14.00;12.50;;;8.00;72.90;;;;;;4577838;28;20815;-76
2020/12/14 00:10:39;;;;;;;14.20;12.43;;;7.50;76.40;;;;;;4576881;28;20440;-76
2020/12/14 00:12:55;;;;;;;14.60;13.07;;;;;;;;;;4577914;28;20932;-78
2020/12/14 00:15:10;;;;;;;14.80;11.70;;;;;;;;;;4576890;28;20451;-76
2020/12/14 00:17:28;;;;;;;14.57;12.57;;;;;;;;;;4577733;28;20472;-76
2020/12/14 00:19:43;;;;;;;14.17;11.77;;;5.80;75.90;;;;;;4576710;28;20535;-75
2020/12/14 00:21:59;;;;;;;13.47;12.07;;;8.60;78.10;;;;;;4577679;28;20894;-76
2020/12/14 00:24:14;;;;;;;14.57;13.00;;;7.50;77.60;;;;;;4576895;28;20447;-76
2020/12/14 00:26:30;;;;;;;14.60;12.77;;;;;;;;;;4577562;28;20448;-78
2020/12/14 00:28:47;;;;;;;14.17;12.43;;;5.60;76.70;;;;;;4577038;28;20534;-76
2020/12/14 00:31:03;;;;;;;14.60;12.77;;;;;;;;;;4577466;28;20946;-76
2020/12/14 00:33:20;;;;;;;14.10;12.57;;;7.70;78.40;;;;;;4576749;28;20815;-77
2020/12/14 00:35:35;;;;;;;14.60;13.00;;;6.70;77.60;;;;;;4577218;28;21019;-78
2020/12/14 00:37:51;;;;;;;14.40;12.60;;;8.40;78.80;;;;;;4577205;28;20432;-76
2020/12/14 00:40:07;;;;;;;14.20;12.70;;;;;;;;;;4576878;28;20944;-76
2020/12/14 00:42:23;;;;;;;16.27;13.60;;;;;;;;;;4577147;28;20496;-76
2020/12/14 00:44:39;;;;;;;13.93;12.33;;;;;;;;;;4576571;28;20455;-76
2020/12/14 00:46:54;;;;;;;15.37;12.77;;;;;;;;;;4577318;28;20532;-77
2020/12/14 00:49:12;;;;;;;13.97;12.57;;;;;;;;;;4591630;28;20490;-76
2020/12/14 00:51:28;;;;;;;16.27;13.90;;;;;;;;;;4576926;28;20472;-76
2020/12/14 00:53:44;;;;;;;15.47;13.80;;;;;;;;;;4576420;28;20448;-75
2020/12/14 00:56:01;;;;;;;15.07;13.43;;;7.70;78.50;;;;;;4592605;28;20443;-76
2020/12/14 00:58:17;;;;;;;15.67;12.87;;;5.40;76.90;;;;;;4576166;28;20463;-76
2020/12/14 01:00:33;;;;;;;15.87;14.17;;;;;;;;;;4577070;28;20939;-75
2020/12/14 01:02:49;;;;;;;15.00;13.40;;;;;;;;;;4576220;28;20934;-76
2020/12/14 01:05:06;;;;;;;14.90;13.30;;;;;;;;;;4577023;28;20448;-76
2020/12/14 01:07:22;;;;;;;15.30;13.23;;;7.70;77.90;;;;;;4576265;28;20437;-76
2020/12/14 01:09:37;;;;;;;16.17;13.40;;;;;;;;;;4577226;28;20540;-76
2020/12/14 01:11:53;;;;;;;14.80;13.20;;;7.50;77.70;;;;;;4576034;28;20456;-76
2020/12/14 01:14:09;;;;;;;15.23;12.90;;;;;;;;;;4576856;28;20448;-77
2020/12/14 01:16:25;;;;;;;15.03;13.43;;;;;;;;;;4575785;28;20480;-76
2020/12/14 01:18:43;;;;;;;16.07;14.37;;;;;;;;;;4576728;28;20487;-76
2020/12/14 01:21:00;;;;;;;16.17;14.23;;;6.40;77.20;;;;;;4576067;28;20445;-76
2020/12/14 01:23:15;;;;;;;14.70;13.20;;;;;;;;;;4576645;28;20455;-76
2020/12/14 01:25:31;;;;;;;14.73;13.23;;;7.00;77.40;;;;;;4576503;28;20999;-75
2020/12/14 01:27:47;;;;;;;12.77;11.47;;;;;;;;;;4576449;28;20449;-75
2020/12/14 01:30:03;;;;;;;13.13;11.77;;;6.10;76.90;;;;;;4576424;28;20818;-76
2020/12/14 01:32:19;;;;;;;13.07;11.13;;;;;;;;;;4576004;28;20451;-75
2020/12/14 01:34:35;;;;;;;12.87;11.33;;;6.40;76.90;;;;;;4576441;28;20461;-75
2020/12/14 01:36:51;;;;;;;12.17;10.93;;;6.80;77.40;;;;;;4576011;28;21015;-76
2020/12/14 01:39:07;;;;;;;12.97;11.57;;;5.50;76.90;;;;;;4575984;28;20449;-76
2020/12/14 01:41:25;;;;;;;12.33;11.03;;;;;;;;;;4575749;28;20488;-76
2020/12/14 01:43:40;;;;;;;12.23;11.03;;;;;;;;;;4576267;28;20532;-75
2020/12/14 01:45:56;;;;;;;12.80;11.40;;;;;;;;;;4575337;28;20463;-75
2020/12/14 01:48:13;;;;;;;12.03;10.83;;;8.20;78.40;;;;;;4576086;28;20540;-75
2020/12/14 01:50:29;;;;;;;11.87;10.60;;;;;;;;;;4575531;28;20455;-76
2020/12/14 01:52:47;;;;;;;12.27;11.03;;;5.60;72.20;;;;;;4576362;28;21010;-75
2020/12/14 01:55:05;;;;;;;12.40;10.57;;;;;;;;;;4575126;28;20429;-75
2020/12/14 01:57:21;;;;;;;12.33;11.13;;;6.00;77.70;;;;;;4576428;28;20468;-75
2020/12/14 01:59:37;;;;;;;11.60;10.43;;;6.30;75.50;;;;;;4575163;28;20452;-76
2020/12/14 02:01:55;;;;;;;11.50;10.30;;;;;;;;;;4576115;28;20544;-76
2020/12/14 02:04:11;;;;;;;12.30;11.00;;;;;;;;;;4573772;28;20461;-75
2020/12/14 02:06:27;;;;;;;12.10;10.90;;;;;;;;;;4558390;28;20457;-74
2020/12/14 02:08:44;;;;;;;12.00;10.80;;;;;;;;;;4575336;28;20916;-74
2020/12/14 02:10:59;;;;;;;11.93;10.73;;;7.00;77.90;;;;;;4575688;28;20476;-75
2020/12/14 02:13:18;;;;;;;12.33;10.60;;;;;;;;;;4575381;28;20436;-76
2020/12/14 02:15:33;;;;;;;12.07;10.03;;;;;;;;;;4575303;28;20433;-75
2020/12/14 02:17:49;;;;;;;11.83;10.63;;;;;;;;;;4575172;28;20479;-76
2020/12/14 02:20:06;;;;;;;11.60;10.43;;;5.60;71.50;;;;;;4575198;28;20811;-75
2020/12/14 02:22:22;;;;;;;12.83;11.03;;;;;;;;;;4575336;28;20483;-77
2020/12/14 02:24:39;;;;;;;13.23;11.83;;;;;;;;;;4575251;28;20531;-76
2020/12/14 02:26:57;;;;;;;11.93;10.73;;;6.00;77.00;;;;;;4575600;28;20449;-76
2020/12/14 02:29:12;;;;;;;12.10;10.87;;;6.70;77.10;;;;;;4574876;28;20514;-75
2020/12/14 02:31:28;;;;;;;12.17;10.87;;;;;;;;;;4575807;28;21018;-75
2020/12/14 02:33:44;;;;;;;12.30;11.00;;;;;;;;;;4574597;28;20476;-75
2020/12/14 02:35:59;;;;;;;13.00;11.70;;;7.70;78.00;;;;;;4576133;28;20440;-75
2020/12/14 02:38:17;;;;;;;12.70;11.33;;;;;;;;;;4574601;28;20417;-76
2020/12/14 02:40:34;;;;;;;12.27;10.93;;;;;;;;;;4575707;28;20425;-75
2020/12/14 02:42:49;;;;;;;13.60;12.20;;;8.80;78.60;;;;;;4574494;28;20476;-76
2020/12/14 02:45:05;;;;;;;13.83;11.97;;;;;;;;;;4575813;28;20797;-76
2020/12/14 02:47:21;;;;;;;12.87;11.47;;;;;;;;;;4574763;28;20424;-75
2020/12/14 02:49:37;;;;;;;14.07;11.27;;;;;;;;;;4575345;28;20441;-76
2020/12/14 02:51:53;;;;;;;13.07;11.67;;;;;;;;;;4574506;28;20441;-76
2020/12/14 02:54:09;;;;;;;13.37;11.80;;;;;;;;;;4575355;28;20444;-74
2020/12/14 02:56:28;;;;;;;13.63;11.90;;;;;;;;;;4574491;28;20560;-75
2020/12/14 02:58:44;;;;;;;13.30;11.90;;;5.70;76.30;;;;;;4575111;28;20440;-75
2020/12/14 03:00:59;;;;;;;13.43;12.03;;;7.60;77.60;;;;;;4576552;28;20449;-75
2020/12/14 03:03:15;;;;;;;12.90;11.60;;;;;;;;;;4577153;28;20848;-75
2020/12/14 03:05:33;;;;;;;13.23;11.80;;;;;;;;;;4579122;28;20432;-75
2020/12/14 03:07:51;;;;;;;13.03;11.47;;;7.70;77.40;;;;;;4578587;28;20845;-77
2020/12/14 03:10:06;;;;;;;15.97;12.80;;;;;;;;;;4578968;28;20528;-76
2020/12/14 03:12:23;;;;;;;14.40;12.53;;;8.00;72.80;;;;;;4578539;28;20447;-76
2020/12/14 03:14:39;;;;;;;13.90;12.20;;;;;;;;;;4578658;28;20448;-75
2020/12/14 03:16:56;;;;;;;14.13;11.87;;;;;;;;;;4578134;28;21086;-76
2020/12/14 03:19:12;;;;;;;13.07;11.67;;;8.60;78.70;;;;;;4578838;28;20429;-76
2020/12/14 03:21:28;;;;;;;15.43;13.20;;;;;;;;;;4578062;28;20476;-75
2020/12/14 03:23:44;;;;;;;14.13;12.63;;;;;;;;;;4578810;28;20440;-76
2020/12/14 03:26:00;;;;;;;13.90;12.37;;;;;;;;;;4577751;28;20460;-76
2020/12/14 03:28:16;;;;;;;13.60;12.20;;;;;;;;;;4578699;28;20820;-75
2020/12/14 03:30:32;;;;;;;13.30;11.23;;;;;;;;;;4577551;28;20449;-75
2020/12/14 03:32:47;;;;;;;14.10;12.70;;;7.80;77.60;;;;;;4578884;28;20947;-75
2020/12/14 03:35:04;;;;;;;14.13;12.63;;;;;;;;;;4577682;28;20479;-74
2020/12/14 03:37:19;;;;;;;13.93;12.37;;;6.30;76.50;;;;;;4578500;28;20441;-75
2020/12/14 03:39:35;;;;;;;14.17;12.10;;;;;;;;;;4577555;28;21035;-75
2020/12/14 03:41:51;;;;;;;13.77;12.30;;;5.60;75.90;;;;;;4578575;28;20874;-75
2020/12/14 03:44:07;;;;;;;14.40;12.77;;;;;;;;;;4577844;28;20456;-75
2020/12/14 03:46:28;;;;;;;13.47;12.07;;;5.50;76.00;;;;;;4578124;28;20452;-75
2020/12/14 03:48:43;;;;;;;14.23;12.73;;;7.00;76.80;;;;;;4577916;28;20452;-76
2020/12/14 03:50:59;;;;;;;14.27;12.77;;;;;;;;;;4577768;28;20445;-75
2020/12/14 03:53:15;;;;;;;13.97;12.47;;;;;;;;;;4593278;28;20475;-75
2020/12/14 03:55:30;;;;;;;14.87;13.03;;;;;;;;;;4577724;28;20503;-75
2020/12/14 03:57:46;;;;;;;14.53;12.70;;;;;;;;;;4577985;28;20480;-76
2020/12/14 04:00:04;;;;;;;14.40;12.90;;;;;;;;;;4577689;28;20487;-75
2020/12/14 04:02:27;;;;;;;14.63;13.00;;;;;;;;;;4577947;28;21042;-74
2020/12/14 04:04:43;;;;;;;14.63;13.03;;;5.60;75.50;;;;;;4577423;28;20465;-75
2020/12/14 04:06:59;;;;;;;16.33;13.60;;;;;;;;;;4576612;28;20944;-76
2020/12/14 04:09:15;;;;;;;15.53;13.93;;;9.20;77.80;;;;;;4592026;28;20458;-75
2020/12/14 04:11:30;;;;;;;14.33;12.83;;;6.00;75.90;;;;;;4577392;28;20441;-75
2020/12/14 04:13:47;;;;;;;14.47;12.30;;;;;;;;;;4575722;28;20445;-75
2020/12/14 04:16:03;;;;;;;14.40;12.60;;;;;;;;;;4577719;28;20487;-75
2020/12/14 04:18:19;;;;;;;14.93;13.33;;;;;;;;;;4577151;28;20844;-76
2020/12/14 04:20:36;;;;;;;14.77;13.17;;;;;;;;;;4577674;28;20514;-75
2020/12/14 04:22:52;;;;;;;14.33;12.83;;;9.20;77.50;;;;;;4576648;28;20472;-76
2020/12/14 04:25:08;;;;;;;17.23;13.87;;;;;;;;;;4577809;28;20479;-76
2020/12/14 04:27:23;;;;;;;14.90;13.37;;;5.90;76.00;;;;;;4576856;28;20815;-76
2020/12/14 04:29:39;;;;;;;14.63;13.13;;;;;;;;;;4577449;28;20452;-75
2020/12/14 04:31:57;;;;;;;14.10;12.60;;;5.50;70.80;;;;;;4576709;28;20528;-76
2020/12/14 04:34:13;;;;;;;14.50;13.10;;;;;;;;;;4577081;28;20851;-75
2020/12/14 04:36:29;;;;;;;20.70;13.53;;;9.00;77.80;;;;;;4577204;28;20449;-75
2020/12/14 04:38:45;;;;;;;14.63;12.90;;;;;;;;;;4576933;28;20473;-75
2020/12/14 04:41:02;;;;;;;13.77;11.70;;;7.40;76.80;;;;;;4592127;28;21037;-75
2020/12/14 04:43:18;;;;;;;14.33;12.83;;;8.10;76.90;;;;;;4575401;28;20477;-75
2020/12/14 04:45:34;;;;;;;17.20;13.70;;;;;;;;;;4577118;28;20469;-77
2020/12/14 04:47:53;;;;;;;15.43;13.83;;;6.70;76.20;;;;;;4576730;28;20532;-75
2020/12/14 04:50:10;;;;;;;13.83;12.43;;;9.20;77.70;;;;;;4577165;28;20475;-75
2020/12/14 04:52:25;;;;;;;13.17;11.43;;;;;;;;;;4576464;28;20536;-75
2020/12/14 04:54:42;;;;;;;14.17;12.20;;;;;;;;;;4577208;28;21078;-75
2020/12/14 04:57:04;;;;;;;15.47;13.53;;;7.80;72.30;;;;;;4576676;28;20515;-75
2020/12/14 04:59:23;;;;;;;15.60;13.27;;;7.60;73.20;;;;;;4577583;28;20915;-76
2020/12/14 05:01:39;;;;;;;15.03;12.57;;;;;;;;;;4576967;28;20516;-76
2020/12/14 05:03:56;;;;;;;16.00;13.77;;;6.70;76.00;;;;;;4578270;28;20469;-77
2020/12/14 05:06:11;;;;;;;15.27;13.00;;;;;;;;;;4576030;28;20440;-75
2020/12/14 05:08:28;;;;;;;16.17;12.80;;;5.90;71.10;;;;;;4577168;28;20539;-75
2020/12/14 05:10:43;;;;;;;15.10;13.07;;;;;;;;;;4576240;28;20467;-77
2020/12/14 05:13:09;;;;;;;14.90;13.30;;;6.20;76.00;;;;;;4576978;28;20904;-75
2020/12/14 05:15:26;;;;;;;15.03;13.43;;;7.80;72.20;;;;;;4576741;28;20807;-75
2020/12/14 05:17:42;;;;;;;14.50;13.00;;;;;;;;;;4576058;28;20841;-75
2020/12/14 05:19:58;;;;;;;14.93;13.40;;;8.10;77.50;;;;;;4576462;28;21022;-76
2020/12/14 05:22:16;;;;;;;15.43;13.83;;;6.20;71.60;;;;;;4574714;28;20833;-74
2020/12/14 05:24:32;;;;;;;17.13;13.83;;;5.70;71.20;;;;;;4576038;28;20971;-74
2020/12/14 05:26:48;;;;;;;15.17;13.57;;;;;;;;;;4575951;28;20449;-74
2020/12/14 05:29:05;;;;;;;14.30;12.80;;;;;;;;;;4591405;28;20444;-74
2020/12/14 05:31:20;;;;;;;14.10;12.50;;;7.30;76.90;;;;;;4574738;28;20974;-76
2020/12/14 05:33:36;;;;;;;13.87;12.43;;;7.50;77.30;;;;;;4574907;28;20444;-75
2020/12/14 05:35:53;;;;;;;13.53;12.13;;;6.40;72.10;;;;;;4575735;28;20447;-77
2020/12/14 05:38:16;;;;;;;14.07;12.63;;;6.40;76.90;;;;;;4576270;28;20453;-75
2020/12/14 05:40:33;;;;;;;13.87;12.47;;;5.60;71.40;;;;;;4575572;28;20433;-74
2020/12/14 05:42:49;;;;;;;14.10;12.03;;;;;;;;;;4574768;28;20512;-73
2020/12/14 05:45:11;;;;;;;13.93;12.53;;;;;;;;;;4575354;28;20460;-75
2020/12/14 05:47:30;;;;;;;13.20;11.70;;;;;;;;;;4576355;28;20429;-77
2020/12/14 05:49:48;;;;;;;14.90;12.73;;;;;;;;;;4575175;28;20943;-75
2020/12/14 05:52:05;;;;;;;14.27;12.60;;;;;;;;;;4575898;28;20452;-76
2020/12/14 05:54:23;;;;;;;16.20;13.40;;;;;;;;;;4575716;28;20441;-76
2020/12/14 05:56:39;;;;;;;14.73;12.87;;;;;;;;;;4575901;28;20943;-76
2020/12/14 05:58:56;;;;;;;12.40;11.20;;;;;;;;;;4575474;28;20730;-75
2020/12/14 06:01:11;;;;;;;15.27;12.10;;;;;;;;;;4575579;28;20468;-75
2020/12/14 06:03:28;;;;;;;15.13;13.43;;;;;;;;;;4575303;28;20551;-74
2020/12/14 06:05:47;;;;;;;17.43;12.97;;;5.40;71.30;;;;;;4573735;28;20475;-75
2020/12/14 06:08:25;;;;;;;14.53;13.03;;;8.10;72.80;;;;;;4575669;28;20429;-75
2020/12/14 06:10:45;;;;;;;15.57;13.97;;;5.90;71.70;;;;;;4574899;28;20437;-74
2020/12/14 06:13:04;;;;;;;15.87;14.20;;;;;;;;;;4575553;28;20796;-75
2020/12/14 06:15:20;;;;;;;15.87;14.27;;;;;;;;;;4574573;28;20453;-76
2020/12/14 06:17:36;;;;;;;14.80;13.03;;;;;;;;;;4575386;28;20465;-75
2020/12/14 06:19:52;;;;;;;19.33;13.63;;;;;;;;;;4574930;28;20460;-75
2020/12/14 06:22:10;;;;;;;15.27;13.67;;;;;;;;;;4575382;28;20575;-74
2020/12/14 06:24:27;;;;;;;18.43;15.07;;;5.90;75.80;;;;;;4574789;28;20442;-74
2020/12/14 06:26:45;;;;;;;17.33;13.73;;;6.20;76.10;;;;;;4590490;28;20440;-74
2020/12/14 06:29:00;;;;;;;16.90;14.50;;;;;;;;;;4589651;28;20861;-74
2020/12/14 06:31:31;;;;;;;18.00;15.07;;;6.10;71.60;;;;;;4575352;28;20797;-77
2020/12/14 06:33:47;;;;;;;19.50;14.70;;;;;;;;;;4575003;28;20421;-75
2020/12/14 06:36:16;;;;;;;17.30;15.50;;;;;;;;;;4574534;28;20832;-76
2020/12/14 06:38:38;;;;;;;16.60;14.90;;;7.00;71.50;;;;;;4574938;28;20838;-75
2020/12/14 06:40:58;;;;;;;17.87;14.63;;;;;;;;;;4574067;28;20489;-77
2020/12/14 06:43:28;;;;;;;17.57;15.17;;;;;;;;;;4574906;28;20488;-76
2020/12/14 06:45:45;;;;;;;18.63;16.60;;;5.60;71.40;;;;;;4573955;28;20532;-74
2020/12/14 06:48:02;;;;;;;18.60;16.20;;;;;;;;;;4574752;28;20449;-75
2020/12/14 06:50:38;;;;;;;19.50;16.70;;;6.00;71.80;;;;;;4573707;28;20508;-75
2020/12/14 06:52:54;;;;;;;17.07;15.17;;;;;;;;;;4574751;28;20425;-75
2020/12/14 06:55:12;;;;;;;20.57;16.20;;;7.90;73.00;;;;;;4574253;28;20449;-75
2020/12/14 06:57:37;;;;;;;17.50;15.70;;;6.40;72.10;;;;;;4572767;28;20444;-75
2020/12/14 06:59:54;;;;;;;19.70;16.10;;;;;;;;;;4574515;28;20429;-77
2020/12/14 07:02:11;;;;;;;19.27;15.77;;;;;;;;;;4572354;28;20468;-76
2020/12/14 07:04:38;;;;;;;19.50;16.80;;;6.10;71.90;;;;;;4575098;28;20449;-76
2020/12/14 07:06:53;;;;;;;18.17;16.20;;;;;;;;;;4574081;28;20471;-77
2020/12/14 07:09:25;;;;;;;20.17;17.33;;;5.90;71.60;;;;;;4575293;28;20449;-74
2020/12/14 07:11:41;;;;;;;21.70;17.87;;;;;;;;;;4573611;28;20479;-77
2020/12/14 07:13:58;;;;;;;22.17;18.30;;;;;;;;;;4574588;28;20448;-76
2020/12/14 07:16:16;;;;;;;19.17;16.73;;;5.70;75.90;;;;;;4573346;28;20595;-76
2020/12/14 07:18:34;;;;;;;19.70;17.07;;;;;;;;;;4574484;28;20871;-77
2020/12/14 07:21:03;;;;;;;24.53;17.87;;;6.60;76.60;;;;;;4588561;28;20451;-77
2020/12/14 07:23:20;;;;;;;21.70;19.33;;;;;;;;;;4574271;28;20460;-78
2020/12/14 07:25:35;;;;;;;22.80;19.93;;;6.20;76.10;;;;;;4574041;28;20448;-76
2020/12/14 07:27:51;;;;;;;22.13;18.83;;;;;;;;;;4572524;28;20456;-76
2020/12/14 07:30:09;;;;;;;23.37;19.57;;;6.60;71.90;;;;;;4574021;28;20954;-76
2020/12/14 07:32:25;;;;;;;23.47;20.13;;;;;;;;;;4573692;28;20440;-77
2020/12/14 07:34:52;;;;;;;25.57;22.73;;;8.00;72.60;;;;;;4574165;28;20475;-78
2020/12/14 07:37:19;;;;;;;30.13;25.50;;;;;;;;;;4572499;28;20441;-75
2020/12/14 07:39:47;;;;;;;30.93;25.20;;;7.90;72.60;;;;;;4574712;28;20429;-76
2020/12/14 07:42:02;;;;;;;28.27;25.27;;;;;;;;;;4588347;28;20444;-75
2020/12/14 07:44:24;;;;;;;30.93;25.37;;;;;;;;;;4574199;28;20433;-75
2020/12/14 07:46:40;;;;;;;29.97;26.30;;;8.00;76.90;;;;;;4574003;28;20856;-76
2020/12/14 07:49:00;;;;;;;29.43;26.33;;;;;;;;;;4577587;28;20511;-77
2020/12/14 07:51:17;;;;;;;39.93;27.27;;;8.70;78.00;;;;;;4576657;28;20444;-76
2020/12/14 07:53:33;;;;;;;30.87;27.10;;;;;;;;;;4577674;28;20917;-77
2020/12/14 07:55:49;;;;;;;27.67;23.73;;;;;;;;;;4576756;28;20452;-78
2020/12/14 07:58:04;;;;;;;24.33;21.73;;;;;;;;;;4577275;28;20495;-76
2020/12/14 08:00:21;;;;;;;23.53;20.33;;;;;;;;;;4576852;28;20437;-77
2020/12/14 08:02:39;;;;;;;23.50;20.13;;;;;;;;;;4577905;28;20487;-77
2020/12/14 08:05:03;;;;;;;25.73;23.07;;;6.50;72.00;;;;;;4577935;28;20453;-77
2020/12/14 08:07:19;;;;;;;30.13;26.93;;;;;;;;;;4575690;28;20436;-76
2020/12/14 08:09:39;;;;;;;30.37;27.07;;;;;;;;;;4577194;28;20495;-77
2020/12/14 08:11:56;;;;;;;31.10;27.73;;;;;;;;;;4576491;28;20559;-77
2020/12/14 08:14:12;;;;;;;35.33;30.43;;;;;;;;;;4576753;28;20445;-78
2020/12/14 08:16:30;;;;;;;31.37;28.07;;;;;;;;;;4576018;28;20620;-76
2020/12/14 08:18:50;;;;;;;33.30;27.70;;;;;;;;;;4592060;28;20826;-75
2020/12/14 08:21:05;;;;;;;32.00;28.07;;;;;;;;;;4576074;28;20511;-74
2020/12/14 08:23:30;;;;;;;29.83;25.97;;;5.90;71.60;;;;;;4576766;28;20479;-76
2020/12/14 08:25:46;;;;;;;30.67;26.67;;;7.90;77.40;;;;;;4575995;28;20425;-75
2020/12/14 08:28:03;;;;;;;32.47;28.83;;;;;;;;;;4577175;28;20455;-75
2020/12/14 08:30:20;;;;;;;33.87;28.70;;;;;;;;;;4576569;28;20548;-77
2020/12/14 08:32:38;;;;;;;28.27;25.27;;;;;;;;;;4577324;28;20456;-78
2020/12/14 08:34:55;;;;;;;29.47;26.27;;;;;;;;;;4575819;28;20464;-76
2020/12/14 08:37:11;;;;;;;29.97;26.47;;;;;;;;;;4575412;28;20455;-78
2020/12/14 08:39:27;;;;;;;27.77;24.13;;;;;;;;;;4576119;28;20453;-76
2020/12/14 08:41:43;;;;;;;28.43;24.17;;;;;;;;;;4576195;28;20448;-76
2020/12/14 08:43:59;;;;;;;29.07;24.30;;;;;;;;;;4576449;28;20942;-75
2020/12/14 08:46:16;;;;;;;26.63;23.80;;;;;;;;;;4575920;28;20463;-76
2020/12/14 08:48:33;;;;;;;28.83;22.87;;;;;;;;;;4576644;28;21001;-77
2020/12/14 08:50:49;;;;;;;25.27;22.57;;;;;;;;;;4575732;28;20931;-76
2020/12/14 08:53:08;;;;;;;22.30;19.87;;;;;;;;;;4576827;28;20867;-78
2020/12/14 08:55:34;;;;;;;23.23;19.77;;;5.60;71.10;;;;;;4575831;28;20448;-77
2020/12/14 08:57:59;;;;;;;23.43;20.93;;;6.70;71.90;;;;;;4576480;28;20495;-75
2020/12/14 09:00:16;;;;;;;23.83;18.17;;;;;;;;;;4575153;28;20433;-75
2020/12/14 09:02:32;;;;;;;29.47;21.03;;;;;;;;;;4575902;28;20540;-77
2020/12/14 09:04:48;;;;;;;28.43;19.43;;;;;;;;;;4575325;28;20471;-75
2020/12/14 09:07:05;;;;;;;22.20;19.10;;;8.20;72.70;;;;;;4576434;28;20468;-75
2020/12/14 09:09:29;;;;;;;22.73;18.87;;;6.30;71.50;;;;;;4575109;28;20480;-76
2020/12/14 09:11:51;;;;;;;24.03;17.83;;;;;;;;;;4576025;28;20550;-76
2020/12/14 09:14:07;;;;;;;23.27;18.17;;;;;;;;;;4575103;28;20444;-74
2020/12/14 09:16:23;;;;;;;21.53;18.83;;;;;;;;;;4575489;28;20465;-76
2020/12/14 09:18:44;;;;;;;22.43;18.80;;;6.10;70.90;;;;;;4575789;28;20437;-75
2020/12/14 09:21:04;;;;;;;20.80;18.53;;;;;;;;;;4574695;28;20908;-76
2020/12/14 09:23:21;;;;;;;23.30;18.60;;;8.60;76.80;;;;;;4590645;28;20962;-75
2020/12/14 09:25:38;;;;;;;21.40;19.13;;;;;;;;;;4575215;28;20532;-76
2020/12/14 09:27:53;;;;;;;20.77;17.67;;;8.60;77.20;;;;;;4575580;28;20958;-76
2020/12/14 09:30:09;;;;;;;18.47;16.37;;;;;;;;;;4575034;28;20453;-75
2020/12/14 09:32:25;;;;;;;20.90;17.03;;;;;;;;;;4575559;28;20452;-76
2020/12/14 09:34:42;;;;;;;21.20;16.97;;;;;;;;;;4574962;28;20460;-76
2020/12/14 09:36:58;;;;;;;22.43;17.77;;;;;;;;;;4575677;28;21045;-75
2020/12/14 09:39:14;;;;;;;22.37;17.87;;;7.40;76.30;;;;;;4574758;28;20444;-76
2020/12/14 09:41:31;;;;;;;20.87;18.17;;;;;;;;;;4575873;28;20453;-78
2020/12/14 09:43:47;;;;;;;21.70;17.20;;;;;;;;;;4574709;28;20536;-74
2020/12/14 09:46:06;;;;;;;20.77;17.53;;;;;;;;;;4575630;28;20482;-73
2020/12/14 09:48:22;;;;;;;23.90;18.93;;;;;;;;;;4574673;28;20454;-75
2020/12/14 09:50:39;;;;;;;19.63;17.57;;;;;;;;;;4575339;28;20855;-76
2020/12/14 09:52:55;;;;;;;21.67;17.63;;;;;;;;;;4574683;28;20524;-76
2020/12/14 09:55:13;;;;;;;20.93;17.63;;;7.20;71.90;;;;;;4575185;28;20484;-77
2020/12/14 09:57:30;;;;;;;22.07;18.10;;;;;;;;;;4574594;28;20543;-75
2020/12/14 09:59:46;;;;;;;21.40;18.40;;;;;;;;;;4575043;28;20543;-75
2020/12/14 10:02:02;;;;;;;22.53;18.10;;;;;;;;;;4574787;28;20449;-76
2020/12/14 10:04:18;;;;;;;20.57;17.40;;;;;;;;;;4574596;28;20584;-76
2020/12/14 10:06:34;;;;;;;24.07;18.40;;;;;;;;;;4574915;28;20456;-77
2020/12/14 10:08:50;;;;;;;22.87;19.47;;;7.70;76.60;;;;;;4574138;28;20452;-76
2020/12/14 10:11:07;;;;;;;23.67;18.80;;;;;;;;;;4574921;28;20472;-77
2020/12/14 10:13:23;;;;;;;24.53;20.03;;;5.70;75.20;;;;;;4574269;28;20441;-77
2020/12/14 10:15:39;;;;;;;22.10;19.27;;;6.40;75.70;;;;;;4575006;28;20453;-76
2020/12/14 10:17:54;;;;;;;21.60;18.53;;;;;;;;;;4574429;28;21018;-76
2020/12/14 10:20:10;;;;;;;21.77;18.50;;;9.00;77.60;;;;;;4575108;28;20432;-77
2020/12/14 10:22:26;;;;;;;25.10;19.00;;;;;;;;;;4588896;28;20866;-75
2020/12/14 10:24:42;;;;;;;23.27;19.53;;;;;;;;;;4575355;28;20489;-76
2020/12/14 10:26:59;;;;;;;22.40;18.90;;;;;;;;;;4574183;28;20453;-76
2020/12/14 10:29:17;;;;;;;21.10;17.70;;;;;;;;;;4575200;28;20560;-76
2020/12/14 10:31:33;;;;;;;21.37;18.07;;;7.70;76.50;;;;;;4574388;28;20915;-75
2020/12/14 10:33:49;;;;;;;34.37;21.73;;;;;;;;;;4574715;28;20762;-75
2020/12/14 10:36:10;;;;;;;22.37;16.83;;;;;;;;;;4573416;28;20534;-76
2020/12/14 10:38:26;;;;;;;20.90;18.13;;;;;;;;;;4574533;28;20429;-77
2020/12/14 10:40:43;;;;;;;21.87;17.93;;;;;;;;;;4573823;28;20823;-76
2020/12/14 10:43:00;;;;;;;19.47;17.37;;;;;;;;;;4574717;28;20456;-76
2020/12/14 10:45:16;;;;;;;21.37;17.90;;;;;;;;;;4589516;28;20783;-77
2020/12/14 10:47:32;;;;;;;20.73;18.27;;;;;;;;;;4574315;28;20591;-76
2020/12/14 10:49:57;;;;;;;23.07;18.00;;;;;;;;;;4574492;28;20425;-76
2020/12/14 10:52:13;;;;;;;22.97;17.60;;;;;;;;;;4573989;28;20456;-77
2020/12/14 10:54:29;;;;;;;20.07;16.53;;;;;;;;;;4574470;28;20436;-76
2020/12/14 10:56:49;;;;;;;17.23;15.30;;;;;;;;;;4588527;28;20446;-79
2020/12/14 10:59:09;;;;;;;16.93;14.73;;;7.90;72.00;;;;;;4574599;28;20499;-77
2020/12/14 11:01:25;;;;;;;18.43;15.67;;;;;;;;;;4573881;28;20833;-75
2020/12/14 11:03:41;;;;;;;19.30;15.50;;;;;;;;;;4572556;28;20516;-76
2020/12/14 11:05:56;;;;;;;17.93;15.43;;;;;;;;;;4573599;28;20496;-78
2020/12/14 11:08:12;;;;;;;19.10;16.70;;;6.60;75.70;;;;;;4574667;28;20451;-77
2020/12/14 11:10:29;;;;;;;21.87;18.57;;;;;;;;;;4556355;28;20932;-77
2020/12/14 11:12:45;;;;;;;23.47;16.97;;;;;;;;;;4574423;28;20515;-77
2020/12/14 11:15:02;;;;;;;21.97;16.57;;;;;;;;;;4573365;28;20539;-76
2020/12/14 11:17:18;;;;;;;20.70;17.33;;;;;;;;;;4572845;28;20484;-78
2020/12/14 11:19:33;;;;;;;20.97;18.10;;;;;;;;;;4573368;28;20449;-77
2020/12/14 11:21:52;;;;;;;20.47;17.40;;;;;;;;;;4575695;28;20480;-77
2020/12/14 11:24:08;;;;;;;21.60;18.00;;;;;;;;;;4576638;28;20483;-76
2020/12/14 11:26:26;;;;;;;19.87;17.57;;;;;;;;;;4577843;28;20539;-76
2020/12/14 11:28:43;;;;;;;22.47;18.30;;;6.60;76.40;;;;;;4577276;28;20429;-77
2020/12/14 11:31:00;;;;;;;23.50;19.53;;;;;;;;;;4577697;28;20456;-76
2020/12/14 11:33:17;;;;;;;23.40;20.50;;;;;;;;;;4577556;28;20467;-78
2020/12/14 11:35:32;;;;;;;22.70;20.07;;;;;;;;;;4577111;28;20468;-75
2020/12/14 11:37:48;;;;;;;23.43;20.67;;;;;;;;;;4577346;28;20441;-76
2020/12/14 11:40:05;;;;;;;26.67;21.77;;;;;;;;;;4576518;28;20969;-77
2020/12/14 11:42:21;;;;;;;26.47;21.60;;;;;;;;;;4577574;28;20812;-77
2020/12/14 11:44:37;;;;;;;26.73;21.43;;;;;;;;;;4577598;28;20484;-78
2020/12/14 11:46:54;;;;;;;27.70;22.63;;;;;;;;;;4577342;28;20524;-77
2020/12/14 11:49:10;;;;;;;27.20;21.40;;;;;;;;;;4576270;28;20456;-76
2020/12/14 11:51:27;;;;;;;29.23;22.03;;;;;;;;;;4577648;28;20456;-76
2020/12/14 11:53:43;;;;;;;27.73;21.30;;;;;;;;;;4576708;28;20540;-77
2020/12/14 11:55:59;;;;;;;27.87;23.00;;;;;;;;;;4577237;28;20455;-76
2020/12/14 11:58:14;;;;;;;27.20;22.47;;;6.80;76.50;;;;;;4575044;28;20523;-77
2020/12/14 12:00:30;;;;;;;30.20;23.13;;;;;;;;;;4576816;28;20552;-77
2020/12/14 12:02:47;;;;;;;27.40;22.43;;;;;;;;;;4575825;28;20444;-76
2020/12/14 12:05:03;;;;;;;27.47;22.87;;;;;;;;;;4591775;28;20857;-78
2020/12/14 12:07:19;;;;;;;29.03;22.83;;;;;;;;;;4575973;28;20445;-77
2020/12/14 12:09:36;;;;;;;29.97;23.40;;;;;;;;;;4577253;28;20479;-76
2020/12/14 12:11:52;;;;;;;30.60;24.80;;;;;;;;;;4576065;28;20451;-78
2020/12/14 12:14:08;;;;;;;44.13;33.80;;;;;;;;;;4591811;28;20444;-77
2020/12/14 12:16:24;;;;;;;53.23;37.53;;;;;;;;;;4557940;28;20469;-76
2020/12/14 12:18:42;;;;;;;29.67;24.60;;;8.50;77.10;;;;;;4577022;28;20432;-77
2020/12/14 12:20:58;;;;;;;32.63;24.20;;;8.70;77.50;;;;;;4576355;28;20468;-75
2020/12/14 12:23:14;;;;;;;30.10;24.07;;;;;;;;;;4575178;28;20441;-79
2020/12/14 12:25:30;;;;;;;26.13;21.93;;;;;;;;;;4576708;28;20445;-76
2020/12/14 12:27:46;;;;;;;26.03;23.23;;;;;;;;;;4576427;28;20449;-77
2020/12/14 12:30:02;;;;;;;27.43;24.13;;;;;;;;;;4577045;28;21311;-76
2020/12/14 12:32:17;;;;;;;27.13;23.10;;;8.80;77.80;;;;;;4575802;28;20461;-76
2020/12/14 12:34:34;;;;;;;29.03;24.37;;;7.50;72.50;;;;;;4576449;28;20459;-77
2020/12/14 12:36:51;;;;;;;27.70;23.70;;;;;;;;;;4590824;28;20574;-75
2020/12/14 12:39:07;;;;;;;27.60;23.80;;;;;;;;;;4576585;28;20453;-77
2020/12/14 12:41:22;;;;;;;30.77;25.63;;;7.10;76.80;;;;;;4576063;28;20790;-76
2020/12/14 12:43:40;;;;;;;26.87;23.63;;;;;;;;;;4576729;28;20508;-76
2020/12/14 12:45:56;;;;;;;28.40;25.07;;;;;;;;;;4575686;28;20525;-76